Time;durP1;ratioP1;P1;durP2;ratioP2;P2;SDS_P1;SDS_P2;PMS_P1;PMS_P2;Temp;Humidity;BMP_temperature;BMP_pressure;BME280_temperature;BME280_humidity;BME280_pressure;Samples;Min_cycle;Max_cycle;Signal;HPM_P1;HPM_P2
2022/06/23 00:01:55;;;;;;;9.52;4.97;;;;;;;17.77;64.50;101096.97;5066435;28;20045;-77
2022/06/23 00:04:31;;;;;;;9.63;4.65;;;;;;;17.72;64.94;101097.22;5068830;28;20052;-76
2022/06/23 00:07:16;;;;;;;11.32;5.18;;;;;;;17.75;65.30;101089.06;5068545;28;20041;-78
2022/06/23 00:09:43;;;;;;;10.00;4.97;;;;;;;17.69;65.29;101081.41;5056397;28;20125;-77
2022/06/23 00:12:37;;;;;;;8.70;4.90;;;;;;;17.67;65.78;101083.31;5059809;28;20120;-77
2022/06/23 00:15:06;;;;;;;9.93;5.30;;;;;;;17.65;66.06;101078.03;5061784;28;20518;-77
2022/06/23 00:17:53;;;;;;;12.85;5.25;;;;;;;17.64;66.36;101073.69;5062339;28;20046;-75
2022/06/23 00:20:50;;;;;;;9.40;5.00;;;;;;;17.58;66.61;101074.00;5057148;28;20792;-77
2022/06/23 00:23:44;;;;;;;9.25;5.30;;;;;;;17.54;66.73;101067.16;5068156;28;20045;-77
2022/06/23 00:26:21;;;;;;;8.82;4.90;;;;;;;17.51;67.29;101067.31;5068473;28;20068;-77
2022/06/23 00:28:57;;;;;;;9.73;5.47;;;;;;;17.47;67.46;101071.97;5070984;28;20044;-75
2022/06/23 00:31:29;;;;;;;11.48;5.60;;;;;;;17.42;67.76;101075.81;5069664;28;20052;-74
2022/06/23 00:34:00;;;;;;;9.77;5.90;;;;;;;17.38;67.98;101075.97;5059350;28;20120;-76
2022/06/23 00:36:59;;;;;;;8.07;4.85;;;;;;;17.37;68.32;101068.94;5067763;28;20083;-76
2022/06/23 00:39:35;;;;;;;11.60;5.40;;;;;;;17.34;68.35;101066.44;5057655;28;20125;-76
2022/06/23 00:42:30;;;;;;;13.82;6.28;;;;;;;17.30;68.42;101072.00;5058598;28;20051;-75
2022/06/23 00:45:07;;;;;;;12.82;5.80;;;;;;;17.23;68.58;101066.19;5058735;28;20053;-75
2022/06/23 00:47:53;;;;;;;12.85;6.03;;;;;;;17.22;68.70;101067.97;5067520;28;20523;-75
2022/06/23 00:50:30;;;;;;;14.30;6.30;;;;;;;17.16;68.56;101065.66;5056111;28;20041;-74
2022/06/23 00:53:12;;;;;;;9.68;5.93;;;;;;;17.13;68.87;101068.47;5069799;28;20036;-76
2022/06/23 00:56:10;;;;;;;7.43;5.60;;;;;;;17.08;68.70;101063.41;5061239;28;20112;-76
2022/06/23 00:58:58;;;;;;;10.02;5.40;;;;;;;17.05;68.89;101060.88;5068123;28;20057;-76
2022/06/23 01:01:54;;;;;;;13.02;5.90;;;;;;;16.99;68.82;101082.53;5059227;28;20046;-76
2022/06/23 01:04:40;;;;;;;12.90;5.80;;;;;;;16.96;68.86;101077.38;5059306;28;20044;-77
2022/06/23 01:08:07;;;;;;;10.73;5.88;;;;;;;16.91;68.74;101080.25;5072859;28;20099;-75
2022/06/23 01:11:08;;;;;;;12.40;5.55;;;;;;;16.86;68.78;101071.66;5051553;28;20048;-77
2022/06/23 01:14:11;;;;;;;9.05;5.55;;;;;;;16.86;68.74;101073.44;5068834;28;20069;-76
2022/06/23 01:16:50;;;;;;;8.35;5.00;;;;;;;16.87;68.69;101067.19;5067698;28;20134;-76
2022/06/23 01:19:29;;;;;;;8.77;5.18;;;;;;;16.83;68.38;101061.16;5061370;28;20149;-76
2022/06/23 01:22:03;;;;;;;9.95;5.43;;;;;;;16.80;68.28;101061.31;5062054;28;20033;-76
2022/06/23 01:24:44;;;;;;;8.38;5.32;;;;;;;16.79;68.08;101058.75;5074061;28;20041;-76
2022/06/23 01:27:50;;;;;;;9.98;5.30;;;;;;;16.80;67.89;101061.31;5070693;28;20037;-75
2022/06/23 01:30:20;;;;;;;9.00;5.25;;;;;;;16.77;67.65;101059.69;5064130;28;20044;-76
2022/06/23 01:33:25;;;;;;;10.18;5.47;;;;;;;16.74;67.64;101051.84;5073710;28;20075;-77
2022/06/23 01:36:04;;;;;;;9.65;4.90;;;;;;;16.73;67.31;101055.47;5068569;28;20061;-78
2022/06/23 01:38:59;;;;;;;13.35;5.82;;;;;;;16.75;67.11;101045.59;5072451;28;20118;-75
2022/06/23 01:41:39;;;;;;;10.63;5.03;;;;;;;16.76;66.88;101043.81;5059206;28;20570;-78
2022/06/23 01:44:21;;;;;;;8.55;5.38;;;;;;;16.77;66.71;101040.19;5061501;28;20175;-79
2022/06/23 01:46:54;;;;;;;10.30;5.55;;;;;;;16.72;66.62;101047.56;5061734;28;20041;-79
2022/06/23 01:49:31;;;;;;;12.38;5.45;;;;;;;16.66;66.83;101053.22;5060919;28;20069;-77
2022/06/23 01:52:20;;;;;;;8.02;5.40;;;;;;;16.64;66.69;101047.09;5059097;28;20084;-78
2022/06/23 01:54:57;;;;;;;9.13;5.38;;;;;;;16.64;66.17;101039.97;5053748;28;20048;-78
2022/06/23 01:57:52;;;;;;;8.27;4.78;;;;;;;16.60;66.38;101039.28;5056955;28;20442;-78
2022/06/23 02:00:25;;;;;;;8.45;5.18;;;;;;;16.63;66.06;101037.41;5053852;28;20048;-79
2022/06/23 02:03:15;;;;;;;7.03;4.93;;;;;;;16.59;65.94;101042.88;5064596;28;20059;-77
2022/06/23 02:06:11;;;;;;;9.38;5.60;;;;;;;16.52;65.96;101040.63;5070731;28;20087;-76
2022/06/23 02:09:02;;;;;;;9.10;5.22;;;;;;;16.55;65.84;101044.00;5071229;28;20049;-77
2022/06/23 02:11:45;;;;;;;6.03;4.65;;;;;;;16.52;65.87;101036.16;5066105;28;20121;-79
2022/06/23 02:14:19;;;;;;;7.55;5.30;;;;;;;16.47;65.93;101032.88;5053002;28;20057;-79
2022/06/23 02:17:32;;;;;;;8.82;5.25;;;;;;;16.45;65.70;101040.94;5053816;28;20034;-78
2022/06/23 02:20:45;;;;;;;8.05;4.95;;;;;;;16.40;65.72;101050.97;5054162;28;20069;-79
2022/06/23 02:23:23;;;;;;;9.35;5.00;;;;;;;16.36;65.71;101046.72;5060485;28;20041;-78
2022/06/23 02:26:15;;;;;;;7.82;5.50;;;;;;;16.34;65.77;101053.91;5071922;28;20112;-76
2022/06/23 02:28:59;;;;;;;10.43;5.40;;;;;;;16.34;65.60;101053.06;5066463;28;20148;-77
2022/06/23 02:31:53;;;;;;;11.15;4.82;;;;;;;16.35;65.61;101055.66;5073683;28;20112;-77
2022/06/23 02:34:41;;;;;;;7.57;4.85;;;;;;;16.36;65.16;101054.72;5053217;28;20076;-77
2022/06/23 02:37:33;;;;;;;8.95;5.20;;;;;;;16.33;65.26;101054.00;5052057;28;20045;-77
2022/06/23 02:40:02;;;;;;;8.15;5.00;;;;;;;16.33;65.35;101052.19;5069439;28;20045;-77
2022/06/23 02:42:40;;;;;;;8.02;5.22;;;;;;;16.30;65.20;101060.38;5068756;28;20041;-76
2022/06/23 02:46:01;;;;;;;9.10;4.82;;;;;;;16.28;65.32;101054.25;5050502;28;20116;-77
2022/06/23 02:48:56;;;;;;;9.77;5.43;;;;;;;16.24;65.50;101048.22;5068637;28;20041;-77
2022/06/23 02:51:44;;;;;;;8.52;4.55;;;;;;;16.20;65.57;101045.81;5060782;28;20049;-77
2022/06/23 02:54:42;;;;;;;8.80;5.25;;;;;;;16.18;65.73;101045.03;5053245;28;20053;-77
2022/06/23 02:57:25;;;;;;;8.80;5.32;;;;;;;16.10;65.74;101032.97;5069997;28;20084;-78
2022/06/23 03:00:28;;;;;;;8.52;5.03;;;;;;;16.06;65.92;101043.84;5062302;28;20041;-77
2022/06/23 03:03:11;;;;;;;9.65;5.18;;;;;;;16.03;66.17;101038.66;5069002;28;20037;-77
2022/06/23 03:05:55;;;;;;;11.82;5.63;;;;;;;16.02;66.12;101032.50;5068741;28;20208;-75
2022/06/23 03:08:38;;;;;;;9.73;5.10;;;;;;;15.98;66.29;101033.59;5063219;28;20145;-76
2022/06/23 03:11:51;;;;;;;8.40;5.15;;;;;;;15.96;66.50;101030.13;5061058;28;20554;-77
2022/06/23 03:14:18;;;;;;;10.98;5.03;;;;;;;16.00;66.38;101042.34;5057098;28;20049;-76
2022/06/23 03:16:55;;;;;;;8.95;5.82;;;;;;;16.01;66.27;101040.53;5059342;28;20111;-76
2022/06/23 03:19:35;;;;;;;9.82;5.70;;;;;;;15.99;66.28;101032.66;5068906;28;20045;-77
2022/06/23 03:22:30;;;;;;;9.32;4.88;;;;;;;16.02;66.30;101036.94;5065658;28;20514;-77
2022/06/23 03:25:20;;;;;;;10.52;5.32;;;;;;;16.00;66.14;101034.38;5061502;28;20878;-75
2022/06/23 03:28:17;;;;;;;12.50;5.45;;;;;;;15.94;66.47;101024.91;5056488;28;20562;-77
2022/06/23 03:31:07;;;;;;;8.23;5.03;;;;;;;15.91;66.29;101029.53;5052436;28;20829;-77
2022/06/23 03:33:57;;;;;;;7.80;5.38;;;;;;;15.89;66.45;101029.56;5071287;28;20111;-77
2022/06/23 03:36:50;;;;;;;11.75;5.38;;;;;;;15.87;66.44;101025.28;5069824;28;20037;-76
2022/06/23 03:42:50;;;;;;;9.60;5.40;;;;;;;15.89;65.98;101026.06;5072024;28;20144;-77
2022/06/23 03:45:39;;;;;;;9.45;4.93;;;;;;;16.03;65.91;101038.66;5063543;28;20128;-77
2022/06/23 03:48:25;;;;;;;10.30;5.25;;;;;;;16.21;65.36;101036.88;5063134;28;20507;-77
2022/06/23 03:51:21;;;;;;;7.95;5.07;;;;;;;16.20;65.16;101027.19;5052149;28;20041;-77
2022/06/23 03:54:02;;;;;;;8.30;5.22;;;;;;;16.22;65.19;101025.31;5062958;28;20041;-77
2022/06/23 03:56:49;;;;;;;10.25;4.85;;;;;;;16.27;64.77;101021.47;5058682;28;20089;-78
2022/06/23 03:59:59;;;;;;;9.40;5.03;;;;;;;16.31;64.58;101016.88;5065527;28;20501;-77
2022/06/23 04:02:39;;;;;;;8.02;5.05;;;;;;;16.21;64.92;101027.09;5053586;28;20124;-78
2022/06/23 04:05:06;;;;;;;6.68;4.78;;;;;;;16.21;64.68;101031.56;5065442;28;20087;-78
2022/06/23 04:07:46;;;;;;;9.23;5.40;;;;;;;16.27;64.67;101026.81;5069440;28;20052;-79
2022/06/23 04:10:27;;;;;;;9.25;5.00;;;;;;;16.32;64.45;101029.22;5052611;28;20038;-78
2022/06/23 04:13:20;;;;;;;8.95;4.82;;;;;;;16.38;64.00;101022.72;5070892;28;20049;-78
2022/06/23 04:15:51;;;;;;;7.38;5.22;;;;;;;16.36;64.08;101024.59;5057035;28;20052;-78
2022/06/23 04:18:28;;;;;;;9.23;4.78;;;;;;;16.35;63.94;101022.88;5054916;28;20119;-77
2022/06/23 04:21:11;;;;;;;8.80;4.93;;;;;;;16.40;63.82;101027.03;5065652;28;20057;-76
2022/06/23 04:24:00;;;;;;;9.15;4.50;;;;;;;16.48;63.78;101039.06;5071881;28;20041;-76
2022/06/23 04:26:41;;;;;;;7.05;4.78;;;;;;;16.52;63.49;101030.84;5066313;28;20662;-76
2022/06/23 04:29:25;;;;;;;7.93;5.03;;;;;;;16.55;63.81;101028.03;5054349;28;20069;-76
2022/06/23 04:32:16;;;;;;;7.17;4.67;;;;;;;16.64;63.01;101039.97;5055051;28;20472;-76
2022/06/23 04:34:54;;;;;;;6.72;4.70;;;;;;;16.68;62.79;101032.72;5071795;28;20163;-75
2022/06/23 04:37:50;;;;;;;6.38;4.05;;;;;;;16.74;63.04;101030.56;5072007;28;20582;-77
2022/06/23 04:40:26;;;;;;;9.10;4.75;;;;;;;16.88;62.43;101031.63;5070183;28;20052;-77
2022/06/23 04:43:02;;;;;;;8.07;4.65;;;;;;;16.93;62.29;101034.91;5066007;28;20120;-77
2022/06/23 04:45:51;;;;;;;7.15;4.50;;;;;;;16.96;62.20;101034.75;5060131;28;20132;-77
2022/06/23 04:48:33;;;;;;;7.93;4.50;;;;;;;17.04;62.06;101032.53;5064285;28;20072;-77
2022/06/23 04:51:33;;;;;;;8.10;4.50;;;;;;;17.11;62.08;101033.06;5059336;28;20140;-76
2022/06/23 04:54:17;;;;;;;9.27;4.60;;;;;;;17.16;61.85;101023.03;5066013;28;20119;-76
2022/06/23 04:57:12;;;;;;;8.68;4.72;;;;;;;17.19;61.83;101046.84;5055818;28;20507;-76
2022/06/23 04:59:48;;;;;;;9.98;4.50;;;;;;;17.25;61.85;101036.78;5073653;28;20207;-76
2022/06/23 05:02:32;;;;;;;9.50;4.07;;;;;;;17.35;61.66;101033.50;5070524;28;20048;-76
2022/06/23 05:05:29;;;;;;;7.47;4.75;;;;;;;17.45;61.12;101025.88;5074983;28;20483;-75
2022/06/23 05:08:23;;;;;;;7.80;4.90;;;;;;;17.52;60.74;101039.72;5068824;28;20059;-75
2022/06/23 05:11:05;;;;;;;7.57;4.32;;;;;;;17.68;60.73;101031.72;5055630;28;20135;-77
2022/06/23 05:13:49;;;;;;;7.13;4.90;;;;;;;18.29;59.67;101027.28;5065494;28;20057;-76
2022/06/23 05:16:28;;;;;;;5.97;3.53;;;;;;;18.82;58.00;101028.59;5054552;28;20491;-76
2022/06/23 05:19:06;;;;;;;7.13;4.50;;;;;;;19.69;55.73;101023.94;5054659;28;20514;-76
2022/06/23 05:21:49;;;;;;;8.02;4.70;;;;;;;21.29;51.34;101029.13;5054730;28;20112;-76
2022/06/23 05:24:24;;;;;;;15.50;4.55;;;;;;;22.13;49.50;101022.00;5071370;28;20451;-75
2022/06/23 05:27:00;;;;;;;9.20;4.10;;;;;;;23.85;45.27;101013.78;5074082;28;20165;-76
2022/06/23 05:29:39;;;;;;;8.55;4.05;;;;;;;25.38;41.34;101015.00;5071510;28;20049;-76
2022/06/23 05:32:21;;;;;;;6.35;3.88;;;;;;;26.48;38.92;101021.13;5068361;28;20063;-76
2022/06/23 05:35:33;;;;;;;9.05;4.00;;;;;;;27.61;35.78;101010.19;5072551;28;20045;-75
2022/06/23 05:38:30;;;;;;;5.90;3.53;;;;;;;28.25;34.75;101018.22;5064568;28;20250;-75
2022/06/23 05:41:12;;;;;;;7.70;3.65;;;;;;;28.69;33.77;101014.59;5065856;28;20045;-74
2022/06/23 05:43:42;;;;;;;12.77;3.80;;;;;;;29.20;32.98;101008.38;5071700;28;20064;-75
2022/06/23 05:46:27;;;;;;;13.10;3.42;;;;;;;29.62;31.52;101014.75;5070171;28;20045;-75
2022/06/23 05:49:15;;;;;;;10.85;3.70;;;;;;;30.05;31.10;101021.78;5059720;28;20062;-74
2022/06/23 05:51:59;;;;;;;10.55;3.72;;;;;;;30.31;30.79;101014.47;5068429;28;20037;-76
2022/06/23 05:54:37;;;;;;;6.43;2.95;;;;;;;30.67;29.75;101004.03;5073235;28;20052;-76
2022/06/23 05:57:17;;;;;;;13.15;3.50;;;;;;;30.92;29.29;101011.25;5072469;28;20730;-76
2022/06/23 06:00:09;;;;;;;8.85;3.50;;;;;;;31.10;28.54;101013.69;5063269;28;20056;-77
2022/06/23 06:03:00;;;;;;;7.03;3.03;;;;;;;31.19;28.25;101009.09;5067198;28;20044;-76
2022/06/23 06:05:35;;;;;;;5.22;3.42;;;;;;;31.28;28.70;101011.59;5076136;28;20041;-75
2022/06/23 06:08:29;;;;;;;6.05;3.28;;;;;;;31.47;28.46;101005.84;5074103;28;20181;-75
2022/06/23 06:11:01;;;;;;;7.35;3.33;;;;;;;31.68;27.97;101007.97;5073977;28;20091;-76
2022/06/23 06:13:37;;;;;;;10.02;3.35;;;;;;;31.80;27.53;101017.38;5071450;28;20091;-76
2022/06/23 06:16:05;;;;;;;7.18;3.00;;;;;;;31.99;27.56;101017.91;5073365;28;20526;-76
2022/06/23 06:18:41;;;;;;;10.43;3.03;;;;;;;32.08;27.70;101019.53;5072416;28;20111;-78
2022/06/23 06:21:16;;;;;;;12.43;3.33;;;;;;;31.86;27.76;101013.94;5074167;28;20072;-77
2022/06/23 06:24:19;;;;;;;8.10;3.40;;;;;;;30.13;29.90;101020.06;5073724;28;20143;-76
2022/06/23 06:26:52;;;;;;;10.52;2.75;;;;;;;27.68;33.77;101016.69;5058013;28;20766;-77
2022/06/23 06:29:33;;;;;;;14.38;3.30;;;;;;;26.01;37.08;101013.78;5071658;28;20124;-76
2022/06/23 06:32:26;;;;;;;5.78;3.10;;;;;;;24.84;39.16;101026.03;5053442;28;20487;-76
2022/06/23 06:35:17;;;;;;;5.00;3.13;;;;;;;24.08;41.49;101029.81;5053021;28;20048;-76
2022/06/23 06:38:05;;;;;;;4.15;2.75;;;;;;;23.49;42.25;101021.22;5073090;28;20120;-75
2022/06/23 06:40:36;;;;;;;9.75;3.20;;;;;;;23.15;42.96;101023.09;5072137;28;20710;-75
2022/06/23 06:43:11;;;;;;;4.05;2.92;;;;;;;22.91;43.94;101021.41;5072506;28;20498;-76
2022/06/23 06:45:40;;;;;;;8.10;3.20;;;;;;;22.72;45.02;101009.44;5072773;28;20072;-76
2022/06/23 06:48:23;;;;;;;6.60;3.08;;;;;;;22.63;45.27;101018.22;5072531;28;20052;-76
2022/06/23 06:51:02;;;;;;;5.53;3.42;;;;;;;22.57;45.33;101022.25;5069851;28;20056;-76
2022/06/23 06:53:38;;;;;;;6.95;3.08;;;;;;;22.57;45.81;101024.94;5071387;28;20091;-76
2022/06/23 06:56:20;;;;;;;8.38;3.13;;;;;;;22.56;46.49;101017.84;5073163;28;20555;-77
2022/06/23 06:59:03;;;;;;;14.93;3.10;;;;;;;22.62;46.55;101027.25;5073497;28;20128;-77
2022/06/23 07:01:37;;;;;;;7.63;3.58;;;;;;;22.63;45.89;101023.59;5073765;28;20033;-75
2022/06/23 07:04:16;;;;;;;7.70;3.08;;;;;;;22.67;46.26;101030.44;5088789;28;20033;-75
2022/06/23 07:07:00;;;;;;;11.63;3.30;;;;;;;22.70;46.98;101023.97;5071153;28;20467;-75
2022/06/23 07:09:49;;;;;;;11.38;3.00;;;;;;;22.85;47.12;101020.06;5072918;28;20523;-76
2022/06/23 07:12:29;;;;;;;8.25;3.42;;;;;;;22.94;46.97;101013.09;5072745;28;20053;-75
2022/06/23 07:15:22;;;;;;;13.45;3.70;;;;;;;23.01;47.23;101016.16;5073179;28;20120;-77
2022/06/23 07:18:26;;;;;;;11.13;3.35;;;;;;;23.16;47.74;101024.81;5058919;28;20048;-76
2022/06/23 07:21:06;;;;;;;9.32;3.10;;;;;;;23.33;47.36;101020.78;5070738;28;20571;-76
2022/06/23 07:23:42;;;;;;;7.30;3.30;;;;;;;23.44;46.29;101018.06;5072789;28;20045;-77
2022/06/23 07:26:52;;;;;;;12.48;3.70;;;;;;;23.49;46.91;101015.00;5072826;28;20063;-77
2022/06/23 07:29:58;;;;;;;11.63;3.28;;;;;;;23.66;46.50;101003.69;5071411;28;20128;-76
2022/06/23 07:33:01;;;;;;;10.18;3.58;;;;;;;23.71;46.57;101014.91;5072341;28;20046;-77
2022/06/23 07:35:36;;;;;;;8.60;3.42;;;;;;;23.79;46.59;101014.28;5075048;28;20135;-76
2022/06/23 07:38:34;;;;;;;7.78;3.47;;;;;;;23.97;47.31;101013.72;5072134;28;20910;-76
2022/06/23 07:41:19;;;;;;;6.85;3.17;;;;;;;24.14;46.92;101012.28;5072121;28;20584;-77
2022/06/23 07:44:11;;;;;;;7.53;3.50;;;;;;;24.23;46.64;101011.50;5066877;28;20038;-76
2022/06/23 07:46:39;;;;;;;7.40;3.78;;;;;;;24.33;46.83;101011.59;5064539;28;20132;-76
2022/06/23 07:49:08;;;;;;;7.63;3.70;;;;;;;24.47;47.12;101015.78;5072728;28;20077;-76
2022/06/23 07:51:37;;;;;;;22.98;4.72;;;;;;;24.60;47.15;101019.13;5072389;28;20051;-75
2022/06/23 07:54:07;;;;;;;9.50;3.75;;;;;;;24.76;47.37;101020.47;5072066;28;20040;-75
2022/06/23 07:56:39;;;;;;;10.80;3.75;;;;;;;24.90;47.34;101014.75;5071651;28;20099;-75
2022/06/23 07:59:13;;;;;;;11.73;3.45;;;;;;;25.05;47.01;101015.22;5070204;28;20578;-76
2022/06/23 08:01:51;;;;;;;10.70;3.40;;;;;;;25.18;46.68;101014.13;5072340;28;20133;-75
2022/06/23 08:04:32;;;;;;;10.73;3.42;;;;;;;25.30;46.09;101017.53;5079454;28;20043;-75
2022/06/23 08:07:07;;;;;;;5.50;3.30;;;;;;;25.37;46.29;101010.59;5092392;28;20407;-74
2022/06/23 08:09:46;;;;;;;12.10;3.88;;;;;;;25.48;46.18;101007.81;5092223;28;20041;-74
2022/06/23 08:18:19;;;;;;;6.00;3.30;;;;;;;25.86;46.25;100998.00;5051917;28;20073;-75
2022/06/23 08:21:08;;;;;;;14.18;4.07;;;;;;;25.99;46.34;100996.88;5051985;28;20045;-75
2022/06/23 08:23:54;;;;;;;10.98;3.15;;;;;;;26.18;46.33;100996.03;5051684;28;20053;-76
2022/06/23 08:26:24;;;;;;;15.48;3.70;;;;;;;26.29;45.76;100990.47;5051866;28;20115;-74
2022/06/23 08:28:57;;;;;;;6.90;3.13;;;;;;;26.41;45.13;100991.13;5056904;28;20037;-75
2022/06/23 08:31:27;;;;;;;9.05;3.20;;;;;;;26.54;45.54;100981.84;5071392;28;20119;-75
2022/06/23 08:34:15;;;;;;;11.20;3.00;;;;;;;26.70;45.42;100992.03;5071005;28;20124;-74
2022/06/23 08:36:47;;;;;;;6.38;2.80;;;;;;;26.79;45.64;100983.06;5071586;28;20079;-74
2022/06/23 08:39:23;;;;;;;8.88;3.20;;;;;;;26.95;45.00;100985.97;5071885;28;20037;-75
2022/06/23 08:42:05;;;;;;;5.95;2.40;;;;;;;27.10;44.88;100988.16;5072334;28;20126;-74
2022/06/23 08:45:14;;;;;;;14.80;3.53;;;;;;;27.26;44.59;100990.22;5071889;28;20065;-74
2022/06/23 08:48:05;;;;;;;9.15;3.10;;;;;;;27.35;44.16;100994.69;5065511;28;20108;-75
2022/06/23 08:50:36;;;;;;;12.23;3.10;;;;;;;27.48;44.44;100991.63;5071024;28;20123;-76
2022/06/23 08:53:58;;;;;;;7.15;2.55;;;;;;;27.66;43.65;100986.22;5071542;28;20120;-76
2022/06/23 08:56:45;;;;;;;14.45;2.88;;;;;;;27.72;44.35;100988.31;5065755;28;20211;-75
2022/06/23 08:59:55;;;;;;;5.63;2.53;;;;;;;27.91;43.65;100983.72;5071557;28;20119;-75
2022/06/23 09:02:50;;;;;;;12.85;3.00;;;;;;;28.03;43.17;100990.59;5068884;28;20089;-77
2022/06/23 09:05:36;;;;;;;6.47;2.42;;;;;;;28.13;43.45;100989.66;5070805;28;20065;-75
2022/06/23 09:08:27;;;;;;;9.05;2.45;;;;;;;28.27;42.93;100988.25;5071557;28;20037;-75
2022/06/23 09:11:25;;;;;;;7.32;2.20;;;;;;;28.48;42.62;100983.28;5071213;28;20041;-75
2022/06/23 09:14:17;;;;;;;16.15;2.60;;;;;;;28.60;42.04;100975.72;5070846;28;20084;-76
2022/06/23 09:17:31;;;;;;;7.53;2.38;;;;;;;28.74;42.03;100974.31;5065703;28;20046;-76
2022/06/23 09:20:39;;;;;;;10.25;2.28;;;;;;;28.90;41.73;100968.06;5074850;28;20041;-74
2022/06/23 09:23:39;;;;;;;14.82;2.80;;;;;;;29.02;41.18;100960.50;5074350;28;20519;-74
2022/06/23 09:26:31;;;;;;;9.73;2.53;;;;;;;29.19;40.83;100957.81;5075046;28;20572;-74
2022/06/23 09:29:29;;;;;;;8.45;2.42;;;;;;;29.31;40.58;100963.75;5074734;28;20134;-76
2022/06/23 09:32:06;;;;;;;12.82;2.70;;;;;;;29.34;40.53;100964.34;5068704;28;20538;-75
2022/06/23 09:34:45;;;;;;;7.88;2.40;;;;;;;29.38;40.90;100960.25;5054493;28;20037;-75
2022/06/23 09:37:39;;;;;;;9.45;2.50;;;;;;;29.54;40.74;100966.75;5070258;28;20040;-75
2022/06/23 09:40:33;;;;;;;7.65;2.80;;;;;;;29.65;40.99;100963.69;5074600;28;20125;-75
2022/06/23 09:43:27;;;;;;;7.40;2.50;;;;;;;29.77;40.70;100949.75;5074716;28;20654;-72
2022/06/23 09:47:00;;;;;;;11.65;2.78;;;;;;;29.83;40.55;100949.91;5073947;28;20459;-76
2022/06/23 09:50:01;;;;;;;11.02;2.80;;;;;;;29.91;39.48;100952.63;5051558;28;20136;-76
2022/06/23 09:52:50;;;;;;;14.55;3.05;;;;;;;29.94;39.63;100951.47;5058549;28;20041;-76
2022/06/23 09:55:57;;;;;;;8.98;2.35;;;;;;;29.97;39.71;100947.56;5073957;28;20045;-75
2022/06/23 09:58:58;;;;;;;5.88;2.55;;;;;;;29.97;40.22;100945.69;5073979;28;20037;-76
2022/06/23 10:01:31;;;;;;;8.38;2.78;;;;;;;30.14;40.19;100951.94;5073587;28;20079;-75
2022/06/23 10:04:45;;;;;;;10.07;2.70;;;;;;;30.28;39.29;100938.66;5070551;28;20044;-74
2022/06/23 10:07:51;;;;;;;10.13;2.22;;;;;;;30.41;38.46;100929.97;5074933;28;20088;-75
2022/06/23 10:11:07;;;;;;;13.15;2.50;;;;;;;30.54;38.48;100937.59;5074376;28;20620;-77
2022/06/23 10:14:26;;;;;;;12.90;3.15;;;;;;;30.62;38.70;100940.28;5073725;28;20347;-75
2022/06/23 10:17:45;;;;;;;9.15;2.50;;;;;;;30.70;38.58;100948.41;5073474;28;20044;-76
2022/06/23 10:20:34;;;;;;;11.10;2.90;;;;;;;30.80;38.57;100929.13;5073276;28;20087;-75
2022/06/23 10:23:25;;;;;;;9.63;2.67;;;;;;;30.90;38.12;100929.75;5061876;28;20045;-76
2022/06/23 10:26:32;;;;;;;7.05;2.75;;;;;;;30.88;38.29;100928.25;5074710;28;20048;-75
2022/06/23 10:29:36;;;;;;;9.98;2.60;;;;;;;31.10;37.76;100921.13;5065575;28;20613;-75
2022/06/23 10:32:54;;;;;;;8.80;2.33;;;;;;;31.35;37.33;100918.28;5068102;28;20045;-75
2022/06/23 10:35:43;;;;;;;10.57;2.58;;;;;;;31.56;36.54;100921.19;5072672;28;20128;-75
2022/06/23 10:38:49;;;;;;;9.13;2.50;;;;;;;31.74;35.75;100914.56;5064515;28;20045;-75
2022/06/23 10:41:51;;;;;;;12.55;2.20;;;;;;;31.86;35.73;100912.25;5074568;28;20196;-75
2022/06/23 10:45:01;;;;;;;12.60;2.58;;;;;;;31.97;35.56;100913.69;5073688;28;20107;-73
2022/06/23 10:47:57;;;;;;;6.53;2.25;;;;;;;32.04;34.98;100910.03;5071386;28;20095;-75
2022/06/23 10:51:04;;;;;;;8.00;2.10;;;;;;;32.26;34.64;100909.31;5071877;28;20530;-75
2022/06/23 10:54:05;;;;;;;12.50;2.63;;;;;;;32.32;34.44;100903.09;5073223;28;20037;-76
2022/06/23 10:56:57;;;;;;;6.45;1.95;;;;;;;32.45;34.32;100899.72;5073726;28;20057;-74
2022/06/23 10:59:55;;;;;;;6.22;2.13;;;;;;;32.63;34.75;100891.97;5072880;28;20809;-76
2022/06/23 11:02:46;;;;;;;9.68;2.33;;;;;;;32.77;33.77;100892.97;5071581;28;20460;-77
2022/06/23 11:05:38;;;;;;;10.35;2.10;;;;;;;32.82;33.73;100884.22;5074266;28;20048;-77
2022/06/23 11:08:33;;;;;;;8.90;2.08;;;;;;;32.88;33.83;100890.78;5082226;28;20406;-75
2022/06/23 11:11:39;;;;;;;11.38;2.38;;;;;;;33.13;33.99;100886.63;5093095;28;20506;-76
2022/06/23 11:14:13;;;;;;;10.07;2.00;;;;;;;33.26;32.97;100887.81;5092915;28;20071;-75
2022/06/23 11:16:57;;;;;;;8.98;2.20;;;;;;;33.35;33.44;100886.66;5093283;28;20044;-75
2022/06/23 11:19:42;;;;;;;25.85;2.75;;;;;;;33.43;32.63;100883.78;5071875;28;20040;-75
2022/06/23 11:22:47;;;;;;;12.05;2.58;;;;;;;33.37;32.53;100881.03;5065197;28;20044;-77
2022/06/23 11:25:53;;;;;;;9.55;2.42;;;;;;;33.36;33.17;100879.34;5071351;28;20041;-76
2022/06/23 11:28:39;;;;;;;15.85;2.60;;;;;;;33.40;32.30;100886.94;5066582;28;20138;-76
2022/06/23 11:31:50;;;;;;;15.43;3.13;;;;;;;33.34;33.23;100882.25;5072051;28;20052;-75
2022/06/23 11:34:59;;;;;;;16.85;2.85;;;;;;;33.20;33.74;100880.41;5072512;28;20036;-76
2022/06/23 11:38:30;;;;;;;31.45;5.15;;;;;;;33.26;33.54;100875.00;5069064;28;20041;-76
2022/06/23 11:41:40;;;;;;;12.18;2.40;;;;;;;33.42;33.85;100875.81;5068158;28;20061;-73
2022/06/23 11:44:41;;;;;;;11.32;2.03;;;;;;;33.60;33.10;100870.69;5072481;28;20053;-76
2022/06/23 11:47:30;;;;;;;18.88;3.08;;;;;;;33.57;33.27;100871.09;5072060;28;20034;-76
2022/06/23 11:50:21;;;;;;;13.98;2.50;;;;;;;33.64;33.19;100865.66;5070834;28;20040;-75
2022/06/23 11:53:46;;;;;;;14.15;3.28;;;;;;;33.66;32.78;100863.59;5059105;28;20037;-75
2022/06/23 11:56:38;;;;;;;12.95;2.17;;;;;;;33.79;33.33;100867.47;5068859;28;20037;-77
2022/06/23 11:59:11;;;;;;;10.52;3.03;;;;;;;33.83;32.85;100866.84;5071848;28;20103;-75
2022/06/23 12:01:38;;;;;;;12.07;2.47;;;;;;;33.88;32.95;100863.56;5071379;28;20041;-74
2022/06/23 12:05:04;;;;;;;10.48;2.60;;;;;;;34.01;32.38;100865.53;5071346;28;20049;-75
2022/06/23 12:07:36;;;;;;;10.85;2.17;;;;;;;34.09;32.06;100857.16;5060580;28;20095;-75
2022/06/23 12:10:25;;;;;;;10.48;2.85;;;;;;;34.14;31.93;100853.81;5071422;28;20075;-75
2022/06/23 12:12:58;;;;;;;13.25;2.58;;;;;;;34.21;32.28;100863.75;5070334;28;20203;-75
2022/06/23 12:15:33;;;;;;;20.85;3.53;;;;;;;34.29;31.98;100860.00;5071466;28;20112;-76
2022/06/23 12:18:15;;;;;;;16.33;2.90;;;;;;;34.38;31.36;100864.25;5071489;28;20183;-75
2022/06/23 12:21:14;;;;;;;16.77;2.85;;;;;;;34.33;31.76;100865.91;5071410;28;20029;-75
2022/06/23 12:23:55;;;;;;;19.65;2.90;;;;;;;34.45;31.96;100857.97;5070933;28;20049;-75
2022/06/23 12:26:43;;;;;;;6.40;2.47;;;;;;;34.56;31.53;100849.16;5070846;28;20055;-74
2022/06/23 12:29:48;;;;;;;20.10;3.45;;;;;;;34.66;31.03;100848.78;5067321;28;20037;-76
2022/06/23 12:32:36;;;;;;;10.75;2.67;;;;;;;34.73;29.96;100849.66;5063182;28;20902;-75
2022/06/23 12:35:27;;;;;;;17.17;3.22;;;;;;;34.64;30.25;100843.53;5065860;28;20049;-75
2022/06/23 12:38:11;;;;;;;17.58;3.28;;;;;;;34.75;30.92;100846.69;5062732;28;20052;-77
2022/06/23 12:40:53;;;;;;;8.23;2.35;;;;;;;34.96;29.97;100843.00;5067469;28;20108;-76
2022/06/23 12:43:32;;;;;;;8.35;2.42;;;;;;;35.12;30.16;100847.22;5063555;28;20087;-76
2022/06/23 12:46:25;;;;;;;12.70;2.28;;;;;;;35.23;29.52;100848.47;5064147;28;20040;-74
2022/06/23 12:49:19;;;;;;;13.55;2.88;;;;;;;35.21;30.39;100839.63;5066750;28;20077;-76
2022/06/23 12:52:05;;;;;;;10.18;2.67;;;;;;;35.29;30.11;100831.22;5068874;28;20535;-72
2022/06/23 12:54:50;;;;;;;10.18;2.38;;;;;;;34.85;30.46;100825.22;5070185;28;20444;-73
2022/06/23 12:57:27;;;;;;;10.70;2.22;;;;;;;34.74;30.33;100820.41;5070169;28;20510;-73
2022/06/23 13:00:17;;;;;;;10.40;2.80;;;;;;;34.86;30.68;100821.44;5068950;28;20130;-72
2022/06/23 13:03:13;;;;;;;11.48;2.35;;;;;;;34.96;30.21;100813.69;5068571;28;20051;-75
2022/06/23 13:06:38;;;;;;;10.85;2.33;;;;;;;35.15;29.93;100813.94;5070260;28;20040;-73
2022/06/23 13:09:50;;;;;;;8.45;2.50;;;;;;;35.06;30.02;100809.69;5066651;28;20057;-71